Time;durP1;ratioP1;P1;durP2;ratioP2;P2;SDS_P1;SDS_P2;PMS_P1;PMS_P2;Temp;Humidity;BMP_temperature;BMP_pressure;BME280_temperature;BME280_humidity;BME280_pressure;Samples;Min_cycle;Max_cycle;Signal;HPM_P1;HPM_P2
2023/09/03 00:01:26;;;;;;;1.05;0.85;;;;;;;19.23;100.00;98187.25;1225471;75;2924653;-67
2023/09/03 00:03:59;;;;;;;2.10;1.15;;;;;;;19.14;100.00;98185.56;1224358;75;2919097;-68
2023/09/03 00:06:34;;;;;;;1.15;1.00;;;;;;;19.01;100.00;98173.63;1224618;75;2922096;-67
2023/09/03 00:09:07;;;;;;;0.80;0.80;;;;;;;19.11;100.00;98181.06;1224934;75;2913540;-68
2023/09/03 00:11:39;;;;;;;0.85;0.60;;;;;;;19.22;100.00;98185.75;1225475;75;2919517;-68
2023/09/03 00:14:12;;;;;;;2.35;0.70;;;;;;;19.26;100.00;98185.44;1225854;75;2919643;-67
2023/09/03 00:16:44;;;;;;;0.70;0.70;;;;;;;19.04;100.00;98181.66;1225960;75;2916181;-66
2023/09/03 00:19:17;;;;;;;0.80;0.80;;;;;;;19.13;100.00;98183.31;1225565;75;2920337;-66
2023/09/03 00:21:53;;;;;;;1.00;0.90;;;;;;;18.88;100.00;98182.56;1224951;75;2921078;-65
2023/09/03 00:24:25;;;;;;;1.10;1.00;;;;;;;18.81;100.00;98183.13;1225915;75;2911951;-64
2023/09/03 00:26:58;;;;;;;2.30;0.95;;;;;;;18.98;100.00;98180.19;1226137;75;2920434;-68
2023/09/03 00:29:30;;;;;;;0.90;0.80;;;;;;;18.85;100.00;98176.03;1218294;75;3097985;-65
2023/09/03 00:32:03;;;;;;;0.70;0.70;;;;;;;18.95;100.00;98173.66;1226043;75;2913368;-68
2023/09/03 00:34:35;;;;;;;0.60;0.60;;;;;;;18.80;100.00;98179.63;1226014;75;2918314;-65
2023/09/03 00:37:10;;;;;;;1.25;0.90;;;;;;;18.86;100.00;98177.56;1223276;75;2965533;-67
2023/09/03 00:39:43;;;;;;;1.15;1.05;;;;;;;18.69;100.00;98174.16;1225629;75;2914674;-65
2023/09/03 00:42:16;;;;;;;1.30;0.80;;;;;;;18.79;100.00;98178.13;1225278;75;2918216;-68
2023/09/03 00:44:48;;;;;;;1.00;0.90;;;;;;;18.77;100.00;98177.16;1226315;75;2914489;-67
2023/09/03 00:47:22;;;;;;;1.30;0.80;;;;;;;18.77;100.00;98172.34;1225382;75;2913531;-65
2023/09/03 00:49:54;;;;;;;0.70;0.70;;;;;;;18.78;100.00;98173.09;1225937;75;2920641;-67
2023/09/03 00:52:30;;;;;;;0.60;0.60;;;;;;;18.74;100.00;98179.66;1225643;75;2920148;-68
2023/09/03 00:55:03;;;;;;;1.00;0.70;;;;;;;18.63;100.00;98173.47;1225631;75;2908155;-66
2023/09/03 00:57:36;;;;;;;0.90;0.75;;;;;;;18.70;100.00;98176.41;1226068;75;2910843;-68
2023/09/03 01:00:11;;;;;;;0.60;0.60;;;;;;;18.68;100.00;98178.19;1226166;75;2915351;-65
2023/09/03 01:02:44;;;;;;;1.05;0.80;;;;;;;18.55;100.00;98172.53;1225868;75;2909982;-63
2023/09/03 01:05:17;;;;;;;0.60;0.60;;;;;;;18.57;100.00;98175.50;1225077;75;2915620;-66
2023/09/03 01:07:53;;;;;;;1.00;0.90;;;;;;;18.60;100.00;98178.03;1225145;75;2919213;-67
2023/09/03 01:10:38;;;;;;;1.45;0.90;;;;;;;18.61;100.00;98176.00;1226130;75;2916273;-67
2023/09/03 01:13:21;;;;;;;1.35;1.20;;;;;;;18.49;100.00;98165.00;1225554;75;2923617;-68
2023/09/03 01:15:56;;;;;;;1.10;1.00;;;;;;;18.39;100.00;98174.16;1225857;75;2913013;-68
2023/09/03 01:18:31;;;;;;;1.00;0.90;;;;;;;18.23;100.00;98171.03;1225376;75;2917535;-66
2023/09/03 01:21:47;;;;;;;1.30;1.20;;;;;;;18.28;100.00;98175.78;1225472;75;2913892;-67
2023/09/03 01:24:43;;;;;;;1.10;1.00;;;;;;;18.28;100.00;98178.53;1225217;75;2914846;-66
2023/09/03 01:27:32;;;;;;;1.35;1.00;;;;;;;18.36;100.00;98172.44;1225179;75;2914126;-67
2023/09/03 01:30:09;;;;;;;1.15;0.80;;;;;;;18.37;100.00;98171.16;1225892;75;2913358;-69
2023/09/03 01:32:42;;;;;;;0.60;0.60;;;;;;;18.36;100.00;98164.88;1226051;75;2917425;-68
2023/09/03 01:35:16;;;;;;;0.75;0.75;;;;;;;18.28;100.00;98152.84;1225805;75;2909376;-67
2023/09/03 01:37:49;;;;;;;0.90;0.85;;;;;;;18.25;100.00;98154.59;1225198;75;2931631;-65
2023/09/03 01:40:22;;;;;;;0.75;0.75;;;;;;;18.19;100.00;98153.91;1226171;75;2916572;-68
2023/09/03 01:42:54;;;;;;;0.90;0.80;;;;;;;18.27;100.00;98145.78;1226139;75;2914738;-68
2023/09/03 01:45:41;;;;;;;0.70;0.70;;;;;;;18.22;100.00;98149.38;1225676;75;2917915;-65
2023/09/03 01:48:27;;;;;;;0.90;0.80;;;;;;;18.19;100.00;98150.41;1226265;75;2907267;-67
2023/09/03 01:51:13;;;;;;;1.10;0.85;;;;;;;18.21;100.00;98151.38;1221812;75;3022053;-67
2023/09/03 01:53:54;;;;;;;0.80;0.80;;;;;;;18.19;100.00;98158.72;1225770;75;2915456;-69
2023/09/03 01:56:29;;;;;;;0.60;0.60;;;;;;;18.21;100.00;98165.25;1225886;75;2916343;-67
2023/09/03 01:59:10;;;;;;;0.65;0.65;;;;;;;18.22;100.00;98166.00;1226135;75;2914848;-65
2023/09/03 02:01:47;;;;;;;0.70;0.70;;;;;;;18.07;100.00;98161.56;1226243;75;2920920;-67
2023/09/03 02:04:20;;;;;;;0.60;0.60;;;;;;;17.90;100.00;98165.72;1225300;75;2919926;-68
2023/09/03 02:06:53;;;;;;;0.95;0.90;;;;;;;17.82;100.00;98157.19;1225607;75;2918966;-65
2023/09/03 02:09:25;;;;;;;3.10;0.90;;;;;;;17.80;100.00;98159.72;1225696;75;2912231;-65
2023/09/03 02:11:58;;;;;;;0.75;0.75;;;;;;;17.85;100.00;98148.63;1226028;75;2917630;-68
2023/09/03 02:14:31;;;;;;;1.10;1.00;;;;;;;17.91;100.00;98156.13;1225589;75;2913192;-66
2023/09/03 02:17:06;;;;;;;1.45;1.10;;;;;;;17.66;100.00;98158.78;1225035;75;2919499;-65
2023/09/03 02:19:39;;;;;;;1.40;1.10;;;;;;;17.66;100.00;98153.97;1225778;75;2913113;-67
2023/09/03 02:22:11;;;;;;;1.25;1.00;;;;;;;17.82;100.00;98146.09;1226175;75;2916280;-66
2023/09/03 02:24:44;;;;;;;0.90;0.80;;;;;;;17.85;100.00;98148.63;1226116;75;2919584;-68
2023/09/03 02:27:16;;;;;;;1.30;1.05;;;;;;;17.85;100.00;98145.09;1225835;75;2913441;-67
2023/09/03 02:29:49;;;;;;;1.30;0.95;;;;;;;17.65;100.00;98157.25;1225457;75;2912141;-66
2023/09/03 02:32:24;;;;;;;1.10;0.80;;;;;;;17.84;100.00;98149.88;1225338;75;2917177;-67
2023/09/03 02:34:57;;;;;;;0.75;0.75;;;;;;;17.56;100.00;98144.47;1224772;75;2921078;-65
2023/09/03 02:37:30;;;;;;;2.10;1.30;;;;;;;17.59;100.00;98142.72;1224656;75;2920778;-65
2023/09/03 02:40:02;;;;;;;1.15;1.05;;;;;;;17.72;100.00;98142.88;1225179;75;2914681;-66
2023/09/03 02:42:35;;;;;;;0.70;0.70;;;;;;;17.74;100.00;98145.13;1225220;75;2920100;-68
2023/09/03 02:45:09;;;;;;;0.90;0.90;;;;;;;17.71;100.00;98146.16;1224848;75;2935907;-66
2023/09/03 02:47:44;;;;;;;0.95;0.85;;;;;;;17.63;100.00;98154.25;1225497;75;2921110;-66
2023/09/03 02:50:17;;;;;;;0.80;0.80;;;;;;;17.72;100.00;98155.97;1225010;75;2920043;-65
2023/09/03 02:52:49;;;;;;;0.90;0.80;;;;;;;17.55;100.00;98158.81;1224379;75;2921172;-66
2023/09/03 02:55:22;;;;;;;1.15;0.80;;;;;;;17.64;100.00;98161.31;1226660;75;2916556;-66
2023/09/03 02:57:55;;;;;;;0.95;0.90;;;;;;;17.59;100.00;98168.38;1225533;75;2919045;-68
2023/09/03 03:00:27;;;;;;;1.10;0.85;;;;;;;17.63;100.00;98166.09;1225442;75;2915688;-69
2023/09/03 03:03:03;;;;;;;0.85;0.80;;;;;;;17.53;100.00;98166.88;1224084;75;2913691;-67
2023/09/03 03:05:35;;;;;;;1.00;0.90;;;;;;;17.53;100.00;98161.34;1225787;75;2920638;-68
2023/09/03 03:08:09;;;;;;;0.85;0.80;;;;;;;17.52;100.00;98174.44;1225307;75;2916202;-68
2023/09/03 03:10:41;;;;;;;0.90;0.85;;;;;;;17.57;100.00;98178.44;1225807;75;2919980;-65
2023/09/03 03:13:14;;;;;;;0.70;0.70;;;;;;;17.45;100.00;98181.25;1225653;75;2915805;-68
2023/09/03 03:15:51;;;;;;;1.05;0.95;;;;;;;17.30;100.00;98189.13;1224972;75;2920839;-65
2023/09/03 03:18:26;;;;;;;1.80;1.15;;;;;;;17.25;100.00;98187.13;1224509;75;2915165;-66
2023/09/03 03:21:09;;;;;;;1.20;1.10;;;;;;;17.38;100.00;98192.88;1225221;75;2918514;-66
2023/09/03 03:23:42;;;;;;;1.10;1.00;;;;;;;17.42;100.00;98193.34;1225547;75;2921886;-65
2023/09/03 03:26:14;;;;;;;0.95;0.95;;;;;;;17.39;100.00;98191.63;1225280;75;2916566;-65
2023/09/03 03:28:47;;;;;;;0.85;0.85;;;;;;;17.45;100.00;98195.09;1225558;75;2919862;-68
2023/09/03 03:31:22;;;;;;;1.35;1.05;;;;;;;17.14;100.00;98190.69;1225025;75;2925996;-68
2023/09/03 03:33:57;;;;;;;0.95;0.90;;;;;;;17.33;100.00;98201.19;1224881;75;2928095;-68
2023/09/03 03:36:30;;;;;;;1.60;1.40;;;;;;;17.10;100.00;98198.50;1225199;75;2914541;-66
2023/09/03 03:39:02;;;;;;;2.20;1.35;;;;;;;17.16;100.00;98199.22;1224604;75;2916865;-67
2023/09/03 03:41:35;;;;;;;1.65;1.20;;;;;;;17.34;100.00;98199.91;1225365;75;2916066;-66
2023/09/03 03:44:08;;;;;;;1.35;1.25;;;;;;;17.27;100.00;98201.22;1224937;75;2919194;-67
2023/09/03 03:46:40;;;;;;;0.90;0.90;;;;;;;17.23;100.00;98209.03;1224652;75;2923390;-65
2023/09/03 03:49:16;;;;;;;1.90;1.25;;;;;;;17.11;100.00;98188.94;1225713;75;2923281;-67
2023/09/03 03:51:48;;;;;;;1.40;1.30;;;;;;;17.21;100.00;98198.44;1225224;75;2923544;-65
2023/09/03 03:54:21;;;;;;;2.05;1.45;;;;;;;16.99;100.00;98193.75;1224834;75;2925800;-66
2023/09/03 03:56:53;;;;;;;1.35;1.25;;;;;;;17.18;100.00;98213.31;1225561;75;2918006;-67
2023/09/03 03:59:26;;;;;;;1.70;1.30;;;;;;;17.16;100.00;98212.31;1225799;75;2918541;-68
2023/09/03 04:01:59;;;;;;;1.25;1.05;;;;;;;17.27;100.00;98217.81;1226057;75;2919390;-67
2023/09/03 04:04:34;;;;;;;1.25;1.15;;;;;;;17.06;100.00;98225.66;1225912;75;2913992;-69
2023/09/03 04:07:08;;;;;;;1.35;1.25;;;;;;;16.84;100.00;98218.16;1225253;75;2914546;-65
2023/09/03 04:09:41;;;;;;;1.30;1.20;;;;;;;16.84;100.00;98226.47;1225280;75;2913277;-68
2023/09/03 04:12:13;;;;;;;1.40;1.25;;;;;;;16.99;100.00;98237.25;1225901;75;2921685;-64
2023/09/03 04:14:48;;;;;;;1.80;1.40;;;;;;;17.01;100.00;98235.47;1224911;75;2921175;-69
2023/09/03 04:17:20;;;;;;;1.20;1.10;;;;;;;17.15;100.00;98242.00;1224592;75;2919078;-69
2023/09/03 04:19:57;;;;;;;1.10;1.00;;;;;;;17.08;100.00;98239.75;1225476;75;2912835;-67
2023/09/03 04:22:29;;;;;;;2.25;1.15;;;;;;;17.12;100.00;98250.53;1224221;75;2932699;-66
2023/09/03 04:25:02;;;;;;;0.95;0.90;;;;;;;17.02;100.00;98250.81;1225751;75;2918877;-67
2023/09/03 04:27:34;;;;;;;2.15;1.00;;;;;;;17.11;100.00;98244.25;1225631;75;2911896;-68
2023/09/03 04:30:10;;;;;;;2.05;1.60;;;;;;;16.95;100.00;98243.03;1224602;75;2922201;-68
2023/09/03 04:32:43;;;;;;;1.80;1.65;;;;;;;16.82;100.00;98251.84;1225742;75;2917889;-69
2023/09/03 04:35:18;;;;;;;2.10;1.45;;;;;;;17.12;100.00;98250.53;1225502;75;2916157;-66
2023/09/03 04:37:51;;;;;;;1.90;1.50;;;;;;;17.04;100.00;98255.84;1224915;75;2915967;-66
2023/09/03 04:40:24;;;;;;;1.70;1.50;;;;;;;16.99;100.00;98254.59;1224289;75;2916413;-68
2023/09/03 04:42:56;;;;;;;2.45;1.55;;;;;;;17.03;100.00;98255.09;1224490;75;2897824;-71
2023/09/03 04:45:29;;;;;;;1.55;1.30;;;;;;;17.07;100.00;98259.59;1224462;75;2915364;-68
2023/09/03 04:48:02;;;;;;;1.60;1.40;;;;;;;17.16;100.00;98256.59;1225369;75;2915333;-66
2023/09/03 04:50:37;;;;;;;1.20;1.10;;;;;;;17.35;100.00;98265.09;1225618;75;2913406;-67
2023/09/03 04:53:11;;;;;;;1.40;1.10;;;;;;;17.35;100.00;98268.59;1224879;75;2916226;-69
2023/09/03 04:55:45;;;;;;;1.65;1.30;;;;;;;17.20;100.00;98263.38;1224686;75;2919671;-67
2023/09/03 04:58:17;;;;;;;0.90;0.90;;;;;;;17.35;100.00;98263.06;1225459;75;2920600;-64
2023/09/03 05:00:50;;;;;;;1.90;1.40;;;;;;;17.30;100.00;98266.63;1224141;75;2929124;-66
2023/09/03 05:03:22;;;;;;;1.30;1.20;;;;;;;17.22;100.00;98263.63;1225887;75;2925836;-66
2023/09/03 05:05:57;;;;;;;3.15;1.75;;;;;;;17.33;100.00;98268.34;1225689;75;2917982;-68
2023/09/03 05:08:30;;;;;;;1.30;1.20;;;;;;;17.27;100.00;98267.63;1224658;75;2918992;-67
2023/09/03 05:11:12;;;;;;;2.10;1.60;;;;;;;17.42;100.00;98272.88;1225845;75;2922095;-68
2023/09/03 05:13:45;;;;;;;1.45;1.10;;;;;;;17.52;100.00;98274.09;1225240;75;2916233;-66
2023/09/03 05:16:18;;;;;;;1.65;1.30;;;;;;;17.36;100.00;98269.34;1223914;75;2920064;-65
2023/09/03 05:18:50;;;;;;;3.55;2.05;;;;;;;17.32;100.00;98277.16;1224888;75;2917030;-68
2023/09/03 05:21:25;;;;;;;2.25;1.70;;;;;;;17.27;100.00;98275.16;1225374;75;2921390;-68
2023/09/03 05:23:58;;;;;;;3.15;2.00;;;;;;;17.36;100.00;98280.44;1225400;75;2933520;-68
2023/09/03 05:26:30;;;;;;;2.05;1.75;;;;;;;17.51;100.00;98291.22;1225265;75;2922108;-70
2023/09/03 05:29:03;;;;;;;2.55;2.10;;;;;;;17.62;100.00;98286.38;1224929;75;2917653;-68
2023/09/03 05:31:35;;;;;;;3.65;1.90;;;;;;;17.61;100.00;98286.91;1225143;75;2921607;-68
2023/09/03 05:34:08;;;;;;;2.30;1.85;;;;;;;17.78;100.00;98289.63;1223591;75;2923759;-68
2023/09/03 05:36:43;;;;;;;2.25;1.95;;;;;;;17.67;100.00;98296.69;1224942;75;2923816;-66
2023/09/03 05:39:16;;;;;;;2.85;2.10;;;;;;;17.91;100.00;98298.16;1225759;75;2911951;-66
2023/09/03 05:41:48;;;;;;;2.65;2.40;;;;;;;17.91;100.00;98314.75;1224529;75;2917656;-70
2023/09/03 05:44:21;;;;;;;3.45;2.20;;;;;;;18.07;100.00;98315.97;1223112;75;2922381;-67
2023/09/03 05:46:54;;;;;;;2.75;2.20;;;;;;;18.31;100.00;98307.78;1224674;75;2923497;-69
2023/09/03 05:49:28;;;;;;;1.60;1.50;;;;;;;18.41;100.00;98319.31;1224826;75;2923098;-68
2023/09/03 05:52:03;;;;;;;1.40;1.30;;;;;;;18.63;100.00;98321.19;1222623;75;2922675;-67
2023/09/03 05:54:36;;;;;;;2.05;1.75;;;;;;;18.72;100.00;98322.91;1225308;75;2924308;-69
2023/09/03 05:57:09;;;;;;;2.05;1.80;;;;;;;18.89;100.00;98317.25;1224343;75;2925927;-67
2023/09/03 05:59:42;;;;;;;4.00;2.40;;;;;;;18.69;100.00;98310.06;1224877;75;2921820;-67
2023/09/03 06:02:14;;;;;;;6.00;5.40;;;;;;;18.46;100.00;98307.44;1224613;75;2918083;-68
2023/09/03 06:04:47;;;;;;;9.00;7.65;;;;;;;18.70;100.00;98303.25;1224997;75;2917638;-68
2023/09/03 06:07:22;;;;;;;7.05;5.60;;;;;;;18.78;100.00;98300.69;1222120;75;2921253;-67
2023/09/03 06:09:55;;;;;;;4.55;4.05;;;;;;;18.85;100.00;98300.88;1224483;75;2892522;-69
2023/09/03 06:12:28;;;;;;;7.25;5.90;;;;;;;19.11;100.00;98296.88;1224039;75;2921903;-69
2023/09/03 06:15:00;;;;;;;19.95;17.55;;;;;;;19.05;100.00;98304.47;1224595;75;2919159;-69
2023/09/03 06:17:33;;;;;;;10.20;8.75;;;;;;;19.08;100.00;98322.91;1225713;75;2916810;-70
2023/09/03 06:20:06;;;;;;;6.45;5.75;;;;;;;19.58;100.00;98318.88;1224133;75;2919116;-69
2023/09/03 06:22:41;;;;;;;5.15;4.65;;;;;;;19.72;100.00;98316.97;1224749;75;2925284;-69
2023/09/03 06:25:14;;;;;;;4.35;3.20;;;;;;;19.90;100.00;98312.75;1212226;75;3836168;-67
2023/09/03 06:27:46;;;;;;;3.60;2.90;;;;;;;19.48;100.00;98320.50;1224395;75;2932652;-68
2023/09/03 06:30:19;;;;;;;2.75;2.10;;;;;;;20.06;100.00;98313.78;1224583;75;2923629;-68
2023/09/03 06:32:51;;;;;;;2.75;2.10;;;;;;;20.09;100.00;98318.31;1224852;75;2916122;-69
2023/09/03 06:35:24;;;;;;;3.25;2.70;;;;;;;19.98;100.00;98322.72;1224799;75;2926853;-68
2023/09/03 06:38:00;;;;;;;2.80;2.25;;;;;;;20.49;100.00;98322.03;1224747;75;2925565;-69
2023/09/03 06:40:33;;;;;;;1.90;1.70;;;;;;;20.48;100.00;98325.38;1224030;75;2925505;-68
2023/09/03 06:43:06;;;;;;;2.75;2.20;;;;;;;20.57;100.00;98317.41;1225096;75;2925319;-68
2023/09/03 06:45:42;;;;;;;3.40;2.70;;;;;;;20.70;100.00;98327.09;1223430;75;2926816;-70
2023/09/03 06:48:14;;;;;;;3.20;2.70;;;;;;;20.74;100.00;98333.13;1224874;75;2921305;-68
2023/09/03 06:50:47;;;;;;;3.40;2.55;;;;;;;20.69;100.00;98337.47;1224430;75;2923937;-69
2023/09/03 06:53:22;;;;;;;3.45;2.50;;;;;;;20.99;100.00;98336.50;1224270;75;2923047;-67
2023/09/03 06:55:56;;;;;;;3.35;2.85;;;;;;;20.70;100.00;98341.75;1225466;75;2916054;-70
2023/09/03 06:58:28;;;;;;;3.80;3.35;;;;;;;20.51;100.00;98335.44;1225298;75;2917989;-68
2023/09/03 07:01:02;;;;;;;8.95;7.20;;;;;;;20.55;100.00;98339.44;1225357;75;2916967;-69
2023/09/03 07:03:34;;;;;;;7.00;5.40;;;;;;;20.50;100.00;98337.47;1224739;75;2920626;-70
2023/09/03 07:06:07;;;;;;;13.80;10.75;;;;;;;20.83;100.00;98346.66;1224405;75;2922359;-69
2023/09/03 07:08:42;;;;;;;9.10;7.55;;;;;;;21.43;100.00;98357.31;1224296;75;2918916;-68
2023/09/03 07:11:15;;;;;;;6.65;5.90;;;;;;;21.68;100.00;98348.75;1225481;75;2924106;-67
2023/09/03 07:13:49;;;;;;;4.75;4.00;;;;;;;21.21;100.00;98352.88;1224683;75;2919991;-68
2023/09/03 07:16:21;;;;;;;4.40;3.80;;;;;;;21.25;100.00;98363.69;1224982;75;2917479;-66
2023/09/03 07:18:54;;;;;;;6.40;3.45;;;;;;;21.11;100.00;98357.31;1223454;75;2926432;-67
2023/09/03 07:21:26;;;;;;;4.30;2.80;;;;;;;21.38;100.00;98363.72;1224613;75;2919721;-66
2023/09/03 07:24:02;;;;;;;3.05;2.75;;;;;;;21.97;100.00;98363.66;1223786;75;2916803;-66
2023/09/03 07:26:34;;;;;;;4.45;3.20;;;;;;;21.64;100.00;98356.69;1225235;75;2917878;-67
2023/09/03 07:29:07;;;;;;;3.50;2.80;;;;;;;21.79;100.00;98370.09;1224873;75;2922890;-67
2023/09/03 07:31:41;;;;;;;4.25;3.45;;;;;;;21.46;100.00;98364.59;1223532;75;2922156;-68
2023/09/03 07:34:14;;;;;;;4.40;2.95;;;;;;;21.96;100.00;98364.97;1224782;75;2920377;-70
2023/09/03 07:36:46;;;;;;;4.00;3.30;;;;;;;21.77;100.00;98365.06;1224685;75;2924994;-69
2023/09/03 07:39:22;;;;;;;3.95;3.10;;;;;;;22.08;100.00;98365.47;1225059;75;2925472;-66
2023/09/03 07:41:56;;;;;;;4.60;2.60;;;;;;;21.93;100.00;98366.00;1225606;75;2923377;-66
2023/09/03 07:44:28;;;;;;;3.20;2.60;;;;;;;22.20;100.00;98363.19;1223914;75;2924450;-67
2023/09/03 07:47:01;;;;;;;2.90;2.50;;;;;;;22.60;100.00;98361.09;1225540;75;2919369;-68
2023/09/03 07:49:34;;;;;;;2.15;1.95;;;;;;;23.08;100.00;98363.84;1225107;75;2927992;-67
2023/09/03 07:52:07;;;;;;;6.80;2.10;;;;;;;23.09;100.00;98368.13;1225649;75;2920516;-68
2023/09/03 07:54:42;;;;;;;2.40;2.00;;;;;;;23.18;100.00;98376.03;1224460;75;2912505;-69
2023/09/03 07:57:15;;;;;;;3.60;2.80;;;;;;;23.08;100.00;98372.22;1224692;75;2920047;-66
2023/09/03 07:59:48;;;;;;;6.85;3.35;;;;;;;22.65;100.00;98387.38;1223461;75;2941152;-69
2023/09/03 08:02:20;;;;;;;147.95;126.25;;;;;;;22.64;100.00;98383.09;1225714;75;2920080;-67
2023/09/03 08:04:53;;;;;;;517.15;460.40;;;;;;;22.94;100.00;98380.59;1224741;75;2925540;-67
2023/09/03 08:07:26;;;;;;;181.10;153.00;;;;;;;23.13;100.00;98374.84;1225822;75;2921121;-66
2023/09/03 08:10:01;;;;;;;112.10;97.60;;;;;;;23.67;99.46;98366.91;1225039;75;2916058;-66
2023/09/03 08:12:34;;;;;;;23.70;21.10;;;;;;;22.72;100.00;98356.75;1225099;75;2936628;-69
2023/09/03 08:15:07;;;;;;;19.25;17.35;;;;;;;23.59;100.00;98363.31;1224532;75;2915489;-67
2023/09/03 08:17:39;;;;;;;10.00;8.70;;;;;;;23.59;100.00;98357.72;1224608;75;2924797;-68
2023/09/03 08:20:14;;;;;;;18.45;14.05;;;;;;;23.66;100.00;98362.59;1225398;75;2929250;-69
2023/09/03 08:22:48;;;;;;;15.90;12.40;;;;;;;22.90;100.00;98371.09;1225527;75;2898271;-65
2023/09/03 08:25:23;;;;;;;6.65;5.05;;;;;;;23.37;100.00;98370.22;1224535;75;2918805;-69
2023/09/03 08:27:55;;;;;;;7.35;3.95;;;;;;;23.59;100.00;98380.84;1225225;75;2916597;-67
2023/09/03 08:30:28;;;;;;;4.85;3.50;;;;;;;23.68;100.00;98374.00;1224219;75;2914852;-67
2023/09/03 08:33:00;;;;;;;4.60;2.75;;;;;;;23.67;100.00;98374.53;1224486;75;2920402;-67
2023/09/03 08:35:33;;;;;;;5.35;3.60;;;;;;;23.64;100.00;98376.38;1225453;75;2919729;-68
2023/09/03 08:38:06;;;;;;;3.80;3.20;;;;;;;23.67;100.00;98366.13;1223582;75;2949619;-68
2023/09/03 08:40:43;;;;;;;2.95;2.50;;;;;;;23.92;96.78;98370.06;1225717;75;2924085;-70
2023/09/03 08:43:21;;;;;;;3.10;2.40;;;;;;;24.55;92.71;98371.84;1225640;75;2913194;-67
2023/09/03 08:46:04;;;;;;;2.50;1.90;;;;;;;24.91;88.12;98377.34;1226660;75;2929355;-66
2023/09/03 08:48:38;;;;;;;30.65;27.35;;;;;;;23.92;90.48;98378.44;1225221;75;2916829;-68
2023/09/03 08:51:12;;;;;;;13.45;12.05;;;;;;;24.33;88.57;98374.00;1226110;75;2892390;-67
2023/09/03 08:53:45;;;;;;;9.45;6.05;;;;;;;24.73;83.63;98375.66;1225824;75;2925060;-64
2023/09/03 08:56:21;;;;;;;4.90;4.40;;;;;;;24.10;78.68;98376.69;1224922;75;2925811;-69
2023/09/03 08:58:54;;;;;;;2.75;2.10;;;;;;;24.30;84.75;98374.38;1225945;75;2917371;-68
2023/09/03 09:01:27;;;;;;;3.15;2.00;;;;;;;24.07;86.54;98379.84;1226298;75;2917371;-67
2023/09/03 09:04:05;;;;;;;2.60;2.15;;;;;;;23.88;84.00;98380.09;1224945;75;2921505;-70
2023/09/03 09:06:39;;;;;;;3.65;1.90;;;;;;;24.15;82.50;98384.19;1224375;75;2922476;-68
2023/09/03 09:09:12;;;;;;;3.55;2.15;;;;;;;24.12;84.13;98385.25;1225376;75;2914462;-68
2023/09/03 09:11:53;;;;;;;5.80;4.30;;;;;;;24.35;85.42;98382.59;1225030;75;2925696;-67
2023/09/03 09:14:50;;;;;;;31.85;25.35;;;;;;;24.42;87.35;98383.91;1225025;75;2926137;-68
2023/09/03 09:17:23;;;;;;;6.45;5.25;;;;;;;24.15;89.25;98384.19;1225719;75;2922101;-65
2023/09/03 09:19:55;;;;;;;3.65;2.65;;;;;;;24.73;86.54;98381.25;1225429;75;2924261;-70
2023/09/03 09:22:28;;;;;;;3.30;2.00;;;;;;;25.12;82.97;98384.88;1225183;75;2927633;-67
2023/09/03 09:25:01;;;;;;;2.25;1.80;;;;;;;25.06;82.69;98380.19;1225106;75;2939600;-66
2023/09/03 09:27:40;;;;;;;2.10;1.80;;;;;;;24.89;81.66;98374.34;1225214;75;2923068;-67
2023/09/03 09:30:15;;;;;;;2.80;1.85;;;;;;;25.17;81.91;98364.31;1226013;75;2910510;-65
2023/09/03 09:32:49;;;;;;;7.00;5.55;;;;;;;25.40;80.95;98378.34;1224710;75;2923853;-69
2023/09/03 09:35:28;;;;;;;7.55;4.55;;;;;;;24.92;84.66;98376.06;1225079;75;2904827;-67
2023/09/03 09:38:09;;;;;;;4.40;3.20;;;;;;;25.27;81.54;98368.81;1226025;75;2918384;-68
2023/09/03 09:40:41;;;;;;;5.45;4.35;;;;;;;25.16;78.90;98368.41;1225420;75;2911153;-69
2023/09/03 09:43:17;;;;;;;10.70;7.40;;;;;;;24.93;86.00;98380.34;1225551;75;2914630;-68
2023/09/03 09:45:51;;;;;;;3.95;2.90;;;;;;;24.62;86.18;98371.13;1225080;75;2924389;-66
2023/09/03 09:48:24;;;;;;;3.30;2.60;;;;;;;25.18;84.58;98377.78;1225615;75;2910554;-67
2023/09/03 09:50:57;;;;;;;2.70;2.30;;;;;;;24.84;83.32;98375.28;1225675;75;2918690;-66
2023/09/03 09:53:31;;;;;;;5.40;3.90;;;;;;;25.14;85.21;98379.47;1225090;75;2921857;-67
2023/09/03 09:56:11;;;;;;;32.15;27.05;;;;;;;25.23;81.60;98384.50;1226242;75;2911886;-67
2023/09/03 09:58:46;;;;;;;49.30;43.15;;;;;;;24.72;89.28;98382.53;1225069;75;2915670;-71
2023/09/03 10:01:19;;;;;;;18.20;16.35;;;;;;;24.92;87.13;98373.25;1225758;75;2913004;-70
2023/09/03 10:03:52;;;;;;;5.05;4.45;;;;;;;25.06;86.75;98374.59;1225483;75;2917714;-66
2023/09/03 10:06:28;;;;;;;3.55;2.80;;;;;;;25.15;83.53;98372.53;1225548;75;2905974;-66
2023/09/03 10:09:01;;;;;;;3.85;3.05;;;;;;;25.20;80.19;98369.56;1224222;75;2936503;-71
2023/09/03 10:11:33;;;;;;;6.05;3.60;;;;;;;25.69;77.24;98373.31;1224942;75;2914832;-69
2023/09/03 10:14:08;;;;;;;3.00;2.40;;;;;;;26.23;74.23;98381.59;1224388;75;2924225;-67
2023/09/03 10:16:41;;;;;;;2.15;1.90;;;;;;;26.29;70.44;98377.28;1225202;75;2924220;-65
2023/09/03 10:19:19;;;;;;;1.90;1.50;;;;;;;26.83;67.66;98381.91;1225508;75;2917220;-66
2023/09/03 10:21:56;;;;;;;1.40;1.10;;;;;;;27.36;66.58;98381.53;1225378;75;2924048;-68
2023/09/03 10:24:30;;;;;;;2.45;1.90;;;;;;;26.86;71.21;98373.06;1224345;75;2915978;-67
2023/09/03 10:27:08;;;;;;;3.25;2.00;;;;;;;27.12;71.28;98373.84;1225413;75;2918615;-69
2023/09/03 10:29:45;;;;;;;4.30;3.05;;;;;;;26.77;70.88;98385.69;1224649;75;2914533;-67
2023/09/03 10:32:19;;;;;;;2.20;1.90;;;;;;;27.43;69.17;98382.81;1225889;75;2921147;-69
2023/09/03 10:34:52;;;;;;;3.70;2.40;;;;;;;27.70;67.61;98377.31;1224480;75;2939973;-67
2023/09/03 10:37:37;;;;;;;2.65;1.70;;;;;;;27.76;66.88;98383.44;1224129;75;2914437;-69
2023/09/03 10:40:28;;;;;;;2.05;1.60;;;;;;;27.83;65.00;98381.91;1225071;75;2926270;-69
2023/09/03 10:43:28;;;;;;;2.25;1.50;;;;;;;27.73;64.00;98384.59;1225276;75;2910421;-68
2023/09/03 10:46:12;;;;;;;3.20;1.95;;;;;;;27.19;66.12;98376.63;1224840;75;2914509;-68
2023/09/03 10:48:54;;;;;;;2.90;1.90;;;;;;;27.26;65.06;98377.88;1225383;75;2924091;-69
2023/09/03 10:51:37;;;;;;;1.90;1.70;;;;;;;27.63;65.04;98370.41;1225676;75;2924470;-68
2023/09/03 10:54:21;;;;;;;2.45;1.80;;;;;;;28.14;65.91;98365.44;1225082;75;2917774;-70
2023/09/03 10:57:21;;;;;;;2.30;1.70;;;;;;;28.97;60.19;98375.44;1225200;75;2917869;-65
2023/09/03 11:00:21;;;;;;;2.65;1.60;;;;;;;29.54;59.41;98360.09;1224463;75;2920131;-67
2023/09/03 11:03:23;;;;;;;2.30;1.70;;;;;;;30.11;58.45;98367.13;1224990;75;2920667;-71
2023/09/03 11:06:22;;;;;;;2.00;1.40;;;;;;;30.65;56.17;98357.56;1224917;75;2921760;-67
2023/09/03 11:09:26;;;;;;;1.70;1.50;;;;;;;30.80;56.49;98356.47;1225259;75;2919198;-71
2023/09/03 11:12:07;;;;;;;1.80;1.60;;;;;;;30.22;58.41;98354.47;1225961;75;2915362;-67
2023/09/03 11:14:40;;;;;;;4.30;3.55;;;;;;;29.47;59.70;98352.50;1224858;75;2924524;-66
2023/09/03 11:17:14;;;;;;;4.90;3.70;;;;;;;29.85;59.25;98334.91;1224294;75;2923253;-70
2023/09/03 11:19:50;;;;;;;11.00;9.55;;;;;;;29.46;59.02;98339.72;1225899;75;2914345;-65
2023/09/03 11:22:23;;;;;;;4.15;3.20;;;;;;;30.64;58.04;98338.38;1226507;75;2909972;-68
2023/09/03 11:24:55;;;;;;;3.35;1.75;;;;;;;29.50;59.63;98331.56;1224902;75;2921781;-68
2023/09/03 11:27:28;;;;;;;2.30;1.85;;;;;;;29.51;61.00;98335.84;1225615;75;2920819;-66
2023/09/03 11:30:08;;;;;;;3.90;2.05;;;;;;;29.08;62.77;98335.47;1224701;75;2915865;-66
2023/09/03 11:32:41;;;;;;;3.00;2.00;;;;;;;27.69;65.72;98330.81;1224914;75;2909649;-66
2023/09/03 11:35:16;;;;;;;1.85;1.55;;;;;;;28.46;64.38;98339.16;1226828;75;2918187;-67
2023/09/03 11:37:49;;;;;;;2.50;1.90;;;;;;;29.23;62.10;98323.94;1225580;75;2913784;-69
2023/09/03 11:40:22;;;;;;;1.80;1.40;;;;;;;29.24;63.54;98330.31;1225723;75;2909785;-66
2023/09/03 11:42:55;;;;;;;2.50;1.20;;;;;;;28.22;62.88;98323.84;1224819;75;2918043;-68
2023/09/03 11:45:32;;;;;;;2.25;1.30;;;;;;;28.04;62.59;98328.78;1224839;67;2919296;-67